Time;durP1;ratioP1;P1;durP2;ratioP2;P2;SDS_P1;SDS_P2;PMS_P1;PMS_P2;Temp;Humidity;BMP_temperature;BMP_pressure;BME280_temperature;BME280_humidity;BME280_pressure;Samples;Min_cycle;Max_cycle;Signal;HPM_P1;HPM_P2
2021/09/30 00:00:15;;;;;;;6.93;1.40;;;10.20;99.90;;;;;;5073109;28;20028;-85
2021/09/30 00:02:41;;;;;;;4.22;1.20;;;;;;;;;;5073603;28;20029;-85
2021/09/30 00:05:09;;;;;;;3.25;1.63;;;10.30;99.90;;;;;;5071390;28;20481;-82
2021/09/30 00:07:35;;;;;;;2.13;1.10;;;;;;;;;;5071457;28;20112;-82
2021/09/30 00:10:01;;;;;;;4.65;1.50;;;;;;;;;;5073562;28;20060;-82
2021/09/30 00:12:30;;;;;;;5.28;1.30;;;10.00;99.90;;;;;;5070083;28;20024;-86
2021/09/30 00:15:04;;;;;;;2.35;1.10;;;;;;;;;;5067145;28;20025;-81
2021/09/30 00:17:52;;;;;;;4.68;1.65;;;;;;;;;;5074102;28;20037;-83
2021/09/30 00:48:07;;;;;;;2.53;1.33;;;9.50;99.90;;;;;;5057927;28;20029;-83
2021/09/30 00:52:41;;;;;;;3.40;1.35;;;;;;;;;;5077087;28;20032;-79
2021/09/30 02:26:17;;;;;;;3.28;1.40;;;;;;;;;;5049047;28;20032;-84
2021/09/30 02:28:56;;;;;;;3.65;1.40;;;8.40;99.90;;;;;;5070971;28;20047;-83
2021/09/30 02:39:51;;;;;;;2.45;1.35;;;8.20;99.90;;;;;;5081220;28;20036;-84
2021/09/30 02:58:57;;;;;;;3.97;2.50;;;;;;;;;;5079268;28;20202;-83
2021/09/30 03:01:25;;;;;;;4.70;1.63;;;7.90;99.90;;;;;;5075606;28;20032;-83
2021/09/30 03:03:54;;;;;;;3.38;1.67;;;8.00;99.90;;;;;;5071230;28;20358;-85
2021/09/30 03:06:21;;;;;;;2.97;1.67;;;8.10;99.90;;;;;;5073319;28;20029;-84
2021/09/30 03:08:52;;;;;;;4.32;1.58;;;;;;;;;;5073726;28;20028;-82
2021/09/30 03:11:21;;;;;;;3.97;1.77;;;8.10;99.90;;;;;;5066416;28;20033;-83
2021/09/30 03:13:48;;;;;;;4.43;1.52;;;8.00;99.90;;;;;;5071636;28;20037;-83
2021/09/30 03:16:22;;;;;;;3.60;1.58;;;;;;;;;;5071239;28;20118;-79
2021/09/30 03:19:01;;;;;;;2.70;1.63;;;8.00;99.90;;;;;;5071041;28;20027;-79
2021/09/30 03:24:16;;;;;;;3.78;1.70;;;8.00;99.90;;;;;;5069004;28;20056;-82
2021/09/30 03:26:44;;;;;;;6.10;2.13;;;8.00;99.90;;;;;;5068233;28;20028;-81
2021/09/30 03:29:12;;;;;;;3.42;1.50;;;8.00;99.90;;;;;;5070802;28;20025;-81
2021/09/30 03:31:38;;;;;;;4.80;1.75;;;;;;;;;;5071599;28;20043;-80
2021/09/30 03:34:05;;;;;;;4.78;1.58;;;7.90;99.90;;;;;;5064821;28;20051;-84
2021/09/30 03:36:31;;;;;;;3.20;1.80;;;;;;;;;;5066110;28;20040;-83
2021/09/30 03:38:57;;;;;;;6.20;1.85;;;;;;;;;;5069915;28;20020;-83
2021/09/30 03:41:23;;;;;;;5.07;1.85;;;;;;;;;;5069052;28;20032;-82
2021/09/30 03:43:50;;;;;;;4.70;2.03;;;;;;;;;;5069876;28;20154;-81
2021/09/30 03:46:16;;;;;;;4.68;1.85;;;;;;;;;;5064231;28;20025;-79
2021/09/30 03:48:51;;;;;;;4.40;1.80;;;;;;;;;;5067746;28;20117;-79
2021/09/30 03:51:26;;;;;;;5.47;1.58;;;;;;;;;;5069762;28;20064;-83
2021/09/30 03:54:12;;;;;;;5.70;1.92;;;;;;;;;;5073728;28;20021;-79
2021/09/30 03:59:22;;;;;;;6.25;1.77;;;8.10;99.90;;;;;;5072181;28;20040;-81
2021/09/30 04:01:55;;;;;;;4.22;1.92;;;8.00;99.90;;;;;;5072637;28;20021;-83
2021/09/30 04:04:21;;;;;;;5.68;2.30;;;;;;;;;;5069113;28;20085;-78
2021/09/30 04:06:47;;;;;;;3.95;1.98;;;;;;;;;;5068205;28;20027;-81
2021/09/30 04:09:14;;;;;;;8.05;1.85;;;;;;;;;;5069683;28;20163;-80
2021/09/30 04:11:41;;;;;;;3.67;1.83;;;;;;;;;;5069028;28;20024;-81
2021/09/30 04:14:07;;;;;;;4.57;1.95;;;8.00;99.90;;;;;;5066008;28;20025;-78
2021/09/30 04:16:33;;;;;;;8.45;2.20;;;;;;;;;;5064902;28;20052;-81
2021/09/30 04:18:59;;;;;;;3.78;2.08;;;;;;;;;;5071554;28;20032;-80
2021/09/30 04:21:25;;;;;;;4.93;2.03;;;;;;;;;;5077118;28;20029;-80
2021/09/30 04:23:51;;;;;;;6.15;2.30;;;;;;;;;;5069741;28;20462;-83
2021/09/30 04:26:17;;;;;;;5.05;2.45;;;;;;;;;;5076822;28;20123;-84
2021/09/30 04:28:43;;;;;;;6.63;2.35;;;;;;;;;;5081566;28;20024;-82
2021/09/30 04:31:09;;;;;;;7.72;2.05;;;;;;;;;;5071584;28;20049;-83
2021/09/30 04:33:35;;;;;;;4.50;2.20;;;;;;;;;;5078914;28;20025;-84
2021/09/30 04:36:01;;;;;;;6.45;2.40;;;;;;;;;;5077407;28;20538;-81
2021/09/30 04:38:27;;;;;;;5.22;1.98;;;;;;;;;;5072731;28;20298;-79
2021/09/30 04:40:53;;;;;;;6.75;2.25;;;;;;;;;;5080236;28;20496;-81
2021/09/30 04:43:19;;;;;;;6.78;2.10;;;;;;;;;;5075869;28;20086;-82
2021/09/30 04:45:45;;;;;;;4.75;2.33;;;;;;;;;;5072051;28;20031;-83
2021/09/30 04:48:13;;;;;;;4.95;2.45;;;;;;;;;;5070280;28;20028;-77
2021/09/30 04:50:39;;;;;;;9.20;2.47;;;;;;;;;;5073592;28;20782;-82
2021/09/30 04:53:05;;;;;;;5.63;2.10;;;;;;;;;;5075317;28;20090;-83
2021/09/30 04:55:31;;;;;;;3.83;2.40;;;;;;;;;;5070577;28;20037;-83
2021/09/30 04:57:57;;;;;;;6.10;2.80;;;;;;;;;;5069309;28;20119;-81
2021/09/30 05:00:23;;;;;;;4.63;2.45;;;;;;;;;;5074288;28;20155;-80
2021/09/30 05:02:49;;;;;;;3.63;2.58;;;;;;;;;;5092157;28;20029;-84
2021/09/30 05:05:15;;;;;;;5.10;2.78;;;;;;;;;;5073100;28;20023;-83
2021/09/30 05:07:41;;;;;;;6.40;2.88;;;;;;;;;;5074565;28;20017;-83
2021/09/30 05:10:10;;;;;;;8.13;3.55;;;;;;;;;;5073221;28;20082;-82
2021/09/30 05:12:36;;;;;;;5.72;2.65;;;;;;;;;;5066020;28;20690;-81
2021/09/30 05:15:03;;;;;;;4.90;3.30;;;7.70;99.90;;;;;;5068123;28;20461;-82
2021/09/30 05:17:29;;;;;;;6.82;2.78;;;;;;;;;;5074027;28;20056;-84
2021/09/30 05:19:55;;;;;;;7.57;4.03;;;;;;;;;;5068210;28;20032;-85
2021/09/30 05:22:21;;;;;;;8.20;3.67;;;;;;;;;;5061251;28;20194;-83
2021/09/30 05:24:47;;;;;;;10.48;3.30;;;;;;;;;;5065969;28;20028;-86
2021/09/30 05:27:13;;;;;;;6.68;3.42;;;;;;;;;;5067252;28;20044;-81
2021/09/30 05:29:39;;;;;;;6.88;3.60;;;;;;;;;;5062707;28;20140;-81
2021/09/30 05:32:05;;;;;;;6.75;3.67;;;;;;;;;;5067369;28;20031;-79
2021/09/30 05:34:31;;;;;;;6.82;3.72;;;7.60;99.90;;;;;;5070239;28;20320;-79
2021/09/30 05:36:57;;;;;;;11.52;4.13;;;;;;;;;;5064584;28;20110;-81
2021/09/30 05:39:23;;;;;;;8.38;4.38;;;;;;;;;;5071354;28;20031;-80
2021/09/30 05:41:50;;;;;;;7.32;4.25;;;;;;;;;;5063571;28;20258;-80
2021/09/30 05:44:21;;;;;;;8.57;4.10;;;;;;;;;;5065381;28;20410;-84
2021/09/30 05:46:52;;;;;;;10.05;4.05;;;;;;;;;;5065163;28;20094;-81
2021/09/30 05:49:19;;;;;;;10.95;4.13;;;;;;;;;;5062122;28;20020;-82
2021/09/30 05:51:45;;;;;;;8.75;4.43;;;;;;;;;;5061067;28;20134;-82
2021/09/30 05:54:11;;;;;;;7.97;4.38;;;;;;;;;;5066472;28;20508;-84
2021/09/30 05:56:37;;;;;;;12.07;4.80;;;;;;;;;;5059276;28;20037;-80
2021/09/30 05:59:03;;;;;;;8.40;4.15;;;;;;;;;;5067024;28;20033;-80
2021/09/30 06:10:04;;;;;;;19.27;5.35;;;;;;;;;;5072981;28;20363;-84
2021/09/30 06:14:44;;;;;;;18.63;5.47;;;7.80;99.90;;;;;;5068072;28;20132;-81
2021/09/30 06:17:11;;;;;;;14.82;6.47;;;;;;;;;;5065363;28;20379;-81
2021/09/30 06:19:36;;;;;;;12.10;5.22;;;;;;;;;;5065250;28;20059;-82
2021/09/30 06:22:07;;;;;;;7.93;4.30;;;;;;;;;;5064743;28;20044;-82
2021/09/30 06:24:34;;;;;;;6.93;4.28;;;7.90;99.90;;;;;;5068707;28;20508;-80
2021/09/30 06:27:00;;;;;;;8.57;4.72;;;;;;;;;;5071415;28;20062;-82
2021/09/30 06:29:26;;;;;;;7.40;4.00;;;;;;;;;;5057280;28;20016;-80
2021/09/30 06:31:52;;;;;;;10.85;5.13;;;;;;;;;;5065997;28;20067;-82
2021/09/30 06:34:18;;;;;;;10.68;4.70;;;;;;;;;;5064099;28;20032;-82
2021/09/30 06:36:44;;;;;;;17.77;5.30;;;;;;;;;;5063528;28;20033;-80
2021/09/30 06:39:10;;;;;;;14.00;4.47;;;;;;;;;;5068716;28;20039;-81
2021/09/30 06:41:36;;;;;;;11.82;4.93;;;;;;;;;;5070321;28;20033;-83
2021/09/30 06:44:03;;;;;;;10.43;4.45;;;;;;;;;;5057522;28;20490;-83
2021/09/30 06:46:29;;;;;;;10.90;4.22;;;;;;;;;;5082120;28;20128;-82
2021/09/30 06:48:55;;;;;;;10.77;4.65;;;;;;;;;;5060838;28;20025;-82
2021/09/30 06:51:21;;;;;;;11.57;5.00;;;;;;;;;;5063589;28;20031;-84
2021/09/30 06:53:47;;;;;;;10.05;4.95;;;;;;;;;;5063547;28;20387;-80
2021/09/30 06:56:19;;;;;;;7.97;4.75;;;;;;;;;;5065060;28;20343;-84
2021/09/30 06:58:45;;;;;;;6.97;4.13;;;;;;;;;;5062549;28;20141;-82
2021/09/30 07:01:13;;;;;;;10.75;4.15;;;8.60;99.90;;;;;;5068738;28;20198;-83
2021/09/30 07:03:39;;;;;;;10.05;4.70;;;;;;;;;;5066022;28;20028;-82
2021/09/30 07:06:06;;;;;;;9.93;4.70;;;8.70;99.90;;;;;;5065223;28;20029;-83
2021/09/30 07:08:32;;;;;;;7.93;4.65;;;;;;;;;;5062392;28;20500;-88
2021/09/30 07:10:58;;;;;;;9.25;4.28;;;;;;;;;;5066718;28;20039;-84
2021/09/30 07:13:25;;;;;;;10.15;4.95;;;;;;;;;;5064855;28;20092;-80
2021/09/30 07:15:51;;;;;;;8.90;4.57;;;;;;;;;;5062825;28;20032;-82
2021/09/30 07:18:18;;;;;;;8.95;4.10;;;9.00;99.90;;;;;;5070131;28;20028;-85
2021/09/30 07:20:48;;;;;;;11.43;4.05;;;;;;;;;;5065469;28;20052;-82
2021/09/30 07:23:14;;;;;;;9.30;4.53;;;;;;;;;;5067027;28;20028;-82
2021/09/30 07:25:40;;;;;;;7.95;4.18;;;;;;;;;;5064606;28;20036;-85
2021/09/30 07:28:07;;;;;;;10.40;4.55;;;9.40;99.90;;;;;;5060399;28;20624;-80
2021/09/30 07:30:33;;;;;;;9.32;3.90;;;9.60;99.90;;;;;;5062921;28;20032;-82
2021/09/30 07:33:00;;;;;;;11.70;4.35;;;9.60;99.90;;;;;;5067315;28;20029;-81
2021/09/30 07:35:26;;;;;;;10.93;4.38;;;11.00;99.90;;;;;;5068650;28;20028;-83
2021/09/30 07:37:55;;;;;;;8.73;4.07;;;11.90;99.90;;;;;;5064039;28;20127;-80
2021/09/30 07:40:22;;;;;;;11.50;5.47;;;10.10;99.90;;;;;;5070821;28;20781;-80
2021/09/30 07:42:49;;;;;;;9.32;3.83;;;;;;;;;;5067273;28;20024;-81
2021/09/30 07:45:15;;;;;;;9.52;4.05;;;;;;;;;;5067735;28;20024;-83
2021/09/30 07:47:41;;;;;;;7.75;4.00;;;;;;;;;;5067006;28;20025;-80
2021/09/30 07:50:08;;;;;;;9.15;4.10;;;10.20;99.90;;;;;;5069435;28;20040;-81
2021/09/30 07:52:33;;;;;;;12.00;4.40;;;9.80;99.90;;;;;;5071981;28;20020;-80
2021/09/30 07:55:02;;;;;;;7.72;3.72;;;;;;;;;;5068739;28;20024;-85
2021/09/30 07:57:28;;;;;;;10.10;3.92;;;;;;;;;;5068803;28;20056;-83
2021/09/30 07:59:54;;;;;;;10.00;4.00;;;;;;;;;;5072159;28;20084;-81
2021/09/30 08:02:21;;;;;;;11.75;4.00;;;10.60;99.90;;;;;;5069009;28;20052;-83
2021/09/30 08:04:47;;;;;;;9.77;3.88;;;;;;;;;;5068215;28;20021;-83
2021/09/30 08:07:13;;;;;;;9.73;4.07;;;;;;;;;;5067602;28;20025;-81
2021/09/30 08:09:39;;;;;;;10.35;3.97;;;;;;;;;;5069640;28;20021;-82
2021/09/30 08:12:05;;;;;;;7.63;3.78;;;;;;;;;;5066804;28;20538;-84
2021/09/30 08:14:31;;;;;;;8.23;3.03;;;;;;;;;;5071130;28;20032;-85
2021/09/30 08:16:57;;;;;;;7.57;3.33;;;10.90;99.90;;;;;;5069324;28;20478;-82
2021/09/30 08:19:23;;;;;;;8.77;3.45;;;;;;;;;;5068953;28;20035;-83
2021/09/30 08:21:50;;;;;;;7.30;3.40;;;;;;;;;;5063613;28;20031;-81
2021/09/30 08:24:17;;;;;;;10.52;3.00;;;11.40;99.90;;;;;;5064133;28;20111;-81
2021/09/30 08:26:46;;;;;;;6.53;3.05;;;;;;;;;;5065697;28;20111;-80
2021/09/30 08:29:14;;;;;;;5.53;3.22;;;11.50;99.90;;;;;;5067130;28;20738;-81
2021/09/30 08:31:40;;;;;;;9.45;3.30;;;;;;;;;;5068551;28;20032;-85
2021/09/30 08:34:06;;;;;;;9.27;3.38;;;;;;;;;;5065254;28;20036;-84
2021/09/30 08:36:33;;;;;;;6.65;2.92;;;11.80;99.90;;;;;;5065164;28;20029;-83
2021/09/30 08:38:59;;;;;;;7.20;3.30;;;;;;;;;;5065643;28;20036;-81
2021/09/30 08:41:25;;;;;;;6.93;2.55;;;;;;;;;;5066347;28;20036;-81
2021/09/30 08:43:52;;;;;;;7.32;3.10;;;;;;;;;;5064532;28;20029;-82
2021/09/30 08:46:19;;;;;;;5.47;2.75;;;12.30;99.90;;;;;;5065071;28;20028;-80
2021/09/30 08:48:46;;;;;;;9.00;3.00;;;12.50;99.90;;;;;;5060905;28;20056;-84
2021/09/30 08:51:13;;;;;;;10.35;2.63;;;12.50;99.90;;;;;;5066853;28;20028;-82
2021/09/30 08:53:39;;;;;;;8.10;2.40;;;;;;;;;;5067746;28;20123;-81
2021/09/30 08:56:08;;;;;;;8.18;2.42;;;12.90;99.90;;;;;;5068989;28;20051;-81
2021/09/30 08:58:35;;;;;;;9.43;2.72;;;12.80;99.90;;;;;;5064176;28;20024;-81
2021/09/30 09:01:01;;;;;;;6.15;2.20;;;;;;;;;;5073320;28;20036;-80
2021/09/30 09:03:36;;;;;;;5.40;2.20;;;12.90;99.90;;;;;;5067855;28;20407;-85
2021/09/30 09:06:04;;;;;;;4.22;2.00;;;13.10;99.90;;;;;;5067433;28;20028;-81
2021/09/30 09:08:30;;;;;;;5.07;1.73;;;;;;;;;;5074404;28;20028;-83
2021/09/30 09:10:57;;;;;;;4.03;1.73;;;13.50;99.00;;;;;;5074479;28;20024;-80
2021/09/30 09:13:24;;;;;;;2.25;1.30;;;;;;;;;;5070675;28;20168;-82
2021/09/30 09:16:01;;;;;;;5.78;1.88;;;13.50;98.80;;;;;;5067921;28;20086;-83
2021/09/30 09:18:29;;;;;;;3.45;1.35;;;13.60;98.40;;;;;;5070290;28;20078;-84
2021/09/30 09:21:04;;;;;;;3.85;1.50;;;;;;;;;;5071501;28;20025;-79
2021/09/30 09:23:31;;;;;;;6.00;1.20;;;13.80;97.90;;;;;;5074268;28;20056;-86
2021/09/30 09:26:07;;;;;;;9.50;2.28;;;;;;;;;;5074372;28;20032;-80
2021/09/30 09:28:33;;;;;;;3.22;1.10;;;;;;;;;;5071230;28;20025;-79
2021/09/30 09:30:59;;;;;;;4.30;1.27;;;;;;;;;;5071350;28;20035;-84
2021/09/30 09:33:29;;;;;;;6.70;1.10;;;;;;;;;;5069346;28;20067;-80
2021/09/30 09:36:19;;;;;;;5.45;1.00;;;;;;;;;;5066512;28;20025;-80
2021/09/30 09:38:45;;;;;;;3.17;0.95;;;;;;;;;;5065764;28;20036;-81
2021/09/30 09:41:21;;;;;;;5.10;1.40;;;11.10;95.70;;;;;;5068269;28;20056;-81
2021/09/30 09:43:49;;;;;;;3.00;1.40;;;14.40;96.10;;;;;;5073353;28;20046;-83
2021/09/30 09:46:20;;;;;;;7.35;1.42;;;14.50;95.70;;;;;;5065336;28;20140;-82
2021/09/30 09:48:57;;;;;;;7.38;1.38;;;14.60;95.50;;;;;;5071642;28;20059;-80
2021/09/30 09:51:23;;;;;;;5.65;1.30;;;;;;;;;;5063514;28;20243;-80
2021/09/30 09:53:49;;;;;;;6.25;1.20;;;;;;;;;;5074103;28;20032;-81
2021/09/30 09:56:18;;;;;;;3.08;1.00;;;14.80;94.90;;;;;;5072968;28;20037;-81
2021/09/30 09:58:58;;;;;;;2.67;1.23;;;14.90;97.70;;;;;;5072247;28;20075;-83
2021/09/30 10:01:37;;;;;;;12.20;1.00;;;15.00;95.30;;;;;;5072911;28;20093;-81
2021/09/30 10:04:02;;;;;;;3.45;0.90;;;15.00;97.10;;;;;;5064556;28;20037;-82
2021/09/30 10:06:30;;;;;;;11.77;3.88;;;15.00;94.20;;;;;;5064769;28;20035;-80
2021/09/30 10:08:56;;;;;;;5.25;1.00;;;;;;;;;;5068432;28;20021;-84
2021/09/30 10:11:22;;;;;;;3.53;1.17;;;;;;;;;;5071868;28;20031;-79
2021/09/30 10:13:49;;;;;;;5.05;0.75;;;;;;;;;;5068769;28;20025;-81
2021/09/30 10:16:16;;;;;;;5.03;1.23;;;15.10;92.50;;;;;;5067464;28;20051;-83
2021/09/30 10:18:42;;;;;;;3.13;0.80;;;;;;;;;;5066382;28;20512;-82
2021/09/30 10:21:08;;;;;;;2.35;0.77;;;;;;;;;;5078696;28;20028;-82
2021/09/30 10:23:36;;;;;;;2.88;0.98;;;14.90;93.10;;;;;;5071380;28;20087;-80
2021/09/30 10:26:12;;;;;;;5.05;1.02;;;14.80;92.70;;;;;;5088349;28;20127;-84
2021/09/30 10:28:40;;;;;;;2.72;0.77;;;15.20;92.60;;;;;;5069498;28;20035;-80
2021/09/30 10:31:19;;;;;;;2.75;1.13;;;15.40;91.70;;;;;;5068272;28;20513;-80
2021/09/30 10:33:45;;;;;;;4.50;1.77;;;;;;;;;;5069384;28;20028;-84
2021/09/30 10:36:44;;;;;;;2.42;0.82;;;16.10;90.30;;;;;;5071395;28;20028;-86
2021/09/30 10:39:25;;;;;;;1.50;0.60;;;16.30;92.90;;;;;;5073966;28;20052;-81
2021/09/30 10:42:01;;;;;;;4.07;1.00;;;16.50;87.90;;;;;;5075012;28;20048;-83
2021/09/30 10:44:35;;;;;;;1.92;0.52;;;16.70;86.60;;;;;;5072350;28;20032;-83
2021/09/30 10:47:05;;;;;;;6.65;0.88;;;16.70;86.40;;;;;;5066333;28;20025;-79
2021/09/30 10:49:30;;;;;;;2.57;0.87;;;;;;;;;;5072906;28;20032;-82
2021/09/30 10:52:32;;;;;;;6.93;0.98;;;17.00;90.90;;;;;;5065989;28;20032;-81
2021/09/30 10:55:04;;;;;;;1.67;1.10;;;17.10;91.00;;;;;;5058640;28;20086;-81
2021/09/30 10:57:32;;;;;;;3.13;1.00;;;17.30;83.60;;;;;;5072823;28;20452;-83
2021/09/30 10:59:59;;;;;;;4.70;0.80;;;;;;;;;;5065784;28;20036;-81
2021/09/30 11:02:25;;;;;;;3.78;0.75;;;;;;;;;;5068463;28;20370;-83
2021/09/30 11:05:08;;;;;;;2.17;0.60;;;17.20;86.40;;;;;;5072239;28;20036;-81
2021/09/30 11:07:38;;;;;;;2.47;0.70;;;17.00;82.40;;;;;;5069455;28;20078;-81
2021/09/30 11:10:22;;;;;;;3.17;0.70;;;17.10;82.80;;;;;;5065570;28;20154;-82
2021/09/30 11:13:17;;;;;;;3.67;0.98;;;17.20;83.40;;;;;;5086768;28;20114;-83
2021/09/30 11:16:32;;;;;;;4.25;0.95;;;17.00;83.00;;;;;;5067371;28;20020;-83
2021/09/30 11:19:00;;;;;;;1.98;0.73;;;16.60;84.70;;;;;;4987892;28;20017;-79
2021/09/30 11:21:29;;;;;;;4.57;0.85;;;;;;;;;;5000517;28;20112;-83
2021/09/30 11:24:04;;;;;;;4.57;1.10;;;16.20;85.30;;;;;;5045282;28;20036;-81
2021/09/30 11:26:33;;;;;;;2.90;1.13;;;16.30;85.30;;;;;;5066655;28;20558;-84
2021/09/30 11:29:21;;;;;;;4.10;0.95;;;16.50;84.00;;;;;;5064782;28;20100;-83
2021/09/30 11:31:59;;;;;;;5.30;1.08;;;16.60;83.70;;;;;;5067573;28;20073;-86
2021/09/30 11:34:25;;;;;;;4.13;0.90;;;;;;;;;;5065570;28;20029;-81
2021/09/30 11:36:52;;;;;;;3.10;0.98;;;16.50;81.40;;;;;;5069368;28;20050;-82
2021/09/30 11:39:19;;;;;;;4.32;1.10;;;;;;;;;;5064024;28;20478;-79
2021/09/30 11:41:46;;;;;;;4.78;1.15;;;16.70;81.10;;;;;;5064802;28;20119;-80
2021/09/30 11:44:17;;;;;;;3.05;0.98;;;17.00;81.40;;;;;;5066280;28;20039;-81
2021/09/30 11:46:49;;;;;;;3.45;0.88;;;17.30;77.70;;;;;;5070445;28;20062;-81
2021/09/30 11:49:16;;;;;;;5.18;0.85;;;;;;;;;;5070333;28;20389;-81
2021/09/30 11:51:50;;;;;;;3.05;0.95;;;17.50;77.30;;;;;;5070091;28;20379;-80
2021/09/30 11:54:23;;;;;;;2.38;0.90;;;17.70;82.90;;;;;;5061667;28;20510;-79
2021/09/30 11:56:51;;;;;;;1.70;0.82;;;17.60;75.70;;;;;;5065801;28;20090;-80
2021/09/30 11:59:18;;;;;;;5.50;0.93;;;17.50;76.70;;;;;;5067405;28;20038;-79
2021/09/30 12:01:47;;;;;;;4.00;0.80;;;17.60;76.90;;;;;;5061219;28;20528;-80
2021/09/30 12:04:27;;;;;;;2.55;0.75;;;17.60;75.90;;;;;;5065566;28;20036;-80
2021/09/30 12:06:53;;;;;;;2.50;0.83;;;;;;;;;;5064805;28;20024;-78
2021/09/30 12:09:20;;;;;;;3.28;0.90;;;;;;;;;;5070203;28;20274;-83
2021/09/30 12:11:58;;;;;;;5.07;0.82;;;17.40;84.20;;;;;;5065508;28;20027;-80
2021/09/30 12:14:37;;;;;;;3.22;0.77;;;17.30;75.80;;;;;;5059917;28;20051;-80
2021/09/30 12:17:06;;;;;;;2.78;0.70;;;17.50;76.00;;;;;;5065846;28;20039;-84
2021/09/30 12:19:32;;;;;;;3.47;1.10;;;;;;;;;;5059181;28;20024;-81
2021/09/30 12:21:58;;;;;;;3.58;0.80;;;;;;;;;;5062055;28;20047;-82
2021/09/30 12:24:25;;;;;;;1.60;0.63;;;17.60;74.50;;;;;;5056557;28;20033;-81
2021/09/30 12:26:51;;;;;;;5.20;1.00;;;;;;;;;;5062247;28;20031;-82
2021/09/30 12:29:18;;;;;;;4.50;0.80;;;17.60;73.40;;;;;;5069300;28;20029;-81
2021/09/30 12:31:45;;;;;;;3.33;0.77;;;;;;;;;;5064865;28;20021;-81
2021/09/30 12:34:24;;;;;;;2.00;0.70;;;17.80;73.10;;;;;;5070767;28;20028;-80
2021/09/30 12:36:50;;;;;;;4.05;1.15;;;;;;;;;;5075256;28;20409;-82
2021/09/30 12:39:24;;;;;;;1.60;0.82;;;18.10;71.30;;;;;;5071195;28;20052;-83
2021/09/30 12:41:50;;;;;;;2.03;0.70;;;;;;;;;;5072787;28;20044;-85
2021/09/30 12:44:16;;;;;;;3.42;1.25;;;;;;;;;;5070141;28;20032;-80
2021/09/30 12:46:50;;;;;;;4.10;0.90;;;18.10;74.50;;;;;;5067838;28;20040;-82
2021/09/30 12:49:16;;;;;;;4.07;1.63;;;;;;;;;;5071131;28;20024;-82
2021/09/30 12:51:42;;;;;;;4.15;1.30;;;;;;;;;;5071226;28;20033;-83
2021/09/30 12:54:08;;;;;;;4.70;1.02;;;;;;;;;;5074109;28;20032;-81
2021/09/30 12:56:35;;;;;;;2.47;0.90;;;18.20;73.40;;;;;;5073729;28;20039;-83
2021/09/30 12:59:12;;;;;;;5.20;0.98;;;18.20;74.10;;;;;;5073743;28;20028;-81
2021/09/30 13:01:38;;;;;;;3.78;0.93;;;;;;;;;;5086140;28;20029;-79
2021/09/30 13:04:22;;;;;;;2.80;1.42;;;;;;;;;;5075658;28;20032;-82
2021/09/30 13:07:05;;;;;;;3.80;1.02;;;17.60;72.40;;;;;;5069600;28;20020;-82
2021/09/30 13:09:33;;;;;;;4.65;1.08;;;17.40;72.90;;;;;;5065677;28;20108;-82
2021/09/30 13:12:04;;;;;;;1.90;0.55;;;17.30;74.30;;;;;;5071908;28;20040;-82
2021/09/30 13:14:54;;;;;;;3.47;0.90;;;17.20;75.60;;;;;;5065763;28;20122;-79
2021/09/30 13:17:20;;;;;;;3.85;1.10;;;;;;;;;;5070002;28;20044;-83
2021/09/30 13:19:54;;;;;;;5.85;1.52;;;17.60;73.80;;;;;;5071757;28;20089;-81
2021/09/30 13:22:24;;;;;;;3.63;1.08;;;17.60;71.90;;;;;;5071577;28;20033;-81
2021/09/30 13:24:52;;;;;;;5.78;1.25;;;17.80;71.60;;;;;;5065078;28;20028;-83
2021/09/30 13:27:21;;;;;;;1.85;0.70;;;17.90;72.20;;;;;;5068200;28;20056;-82
2021/09/30 13:29:50;;;;;;;3.42;1.08;;;17.90;73.00;;;;;;5064071;28;20517;-82
2021/09/30 13:32:17;;;;;;;1.90;0.80;;;18.10;71.60;;;;;;5065323;28;20078;-81
2021/09/30 13:34:43;;;;;;;2.65;0.60;;;;;;;;;;5069083;28;20070;-82
2021/09/30 13:37:09;;;;;;;2.53;0.90;;;;;;;;;;5062424;28;20053;-84
2021/09/30 13:39:35;;;;;;;3.40;1.00;;;;;;;;;;5068868;28;20021;-82
2021/09/30 13:42:01;;;;;;;2.20;0.60;;;;;;;;;;5065687;28;20067;-81
2021/09/30 13:44:27;;;;;;;2.42;0.90;;;;;;;;;;5067443;28;20028;-81
2021/09/30 13:46:54;;;;;;;2.00;0.80;;;;;;;;;;5066396;28;20073;-83
2021/09/30 13:49:20;;;;;;;2.20;0.90;;;;;;;;;;5069235;28;20062;-80
2021/09/30 13:51:46;;;;;;;1.83;0.80;;;;;;;;;;5069315;28;20067;-82
2021/09/30 13:54:12;;;;;;;1.55;0.70;;;;;;;;;;5066199;28;20064;-82
2021/09/30 13:56:38;;;;;;;3.38;1.30;;;;;;;;;;5066162;28;20025;-83
2021/09/30 13:59:04;;;;;;;1.85;0.75;;;;;;;;;;5070137;28;20397;-83
2021/09/30 14:01:30;;;;;;;3.67;1.10;;;;;;;;;;5067078;28;20379;-84
2021/09/30 14:03:56;;;;;;;1.85;0.73;;;;;;;;;;5061837;28;20583;-80
2021/09/30 14:06:22;;;;;;;4.15;1.45;;;;;;;;;;5067752;28;20025;-82
2021/09/30 14:08:52;;;;;;;0.60;0.57;;;;;;;;;;5070108;28;20070;-82
2021/09/30 14:11:19;;;;;;;2.47;0.73;;;17.40;78.40;;;;;;5071161;28;20035;-81
2021/09/30 14:13:45;;;;;;;2.95;0.80;;;;;;;;;;5067830;28;20118;-83
2021/09/30 14:16:11;;;;;;;4.00;0.88;;;;;;;;;;5068645;28;20028;-79
2021/09/30 14:18:37;;;;;;;4.22;0.88;;;;;;;;;;5068180;28;20081;-84
2021/09/30 14:21:04;;;;;;;2.45;0.90;;;;;;;;;;5070759;28;20115;-81
2021/09/30 14:23:30;;;;;;;6.65;1.00;;;;;;;;;;5066876;28;20021;-82
2021/09/30 14:25:58;;;;;;;1.20;0.73;;;;;;;;;;5073027;28;20107;-81
2021/09/30 14:28:24;;;;;;;3.35;0.88;;;;;;;;;;5070887;28;20036;-81
2021/09/30 14:30:50;;;;;;;3.63;0.80;;;;;;;;;;5062116;28;20083;-82
2021/09/30 14:33:16;;;;;;;3.17;0.80;;;;;;;;;;5062745;28;20606;-80
2021/09/30 14:35:42;;;;;;;5.15;1.10;;;;;;;;;;5064286;28;20029;-80
2021/09/30 14:38:08;;;;;;;2.67;0.75;;;;;;;;;;5072566;28;20066;-80
2021/09/30 14:40:34;;;;;;;6.15;1.23;;;;;;;;;;5072052;28;20024;-79
2021/09/30 14:43:00;;;;;;;4.78;2.25;;;;;;;;;;5068316;28;20078;-84
2021/09/30 14:45:26;;;;;;;2.70;0.75;;;;;;;;;;5071640;28;20436;-79
2021/09/30 14:47:52;;;;;;;2.67;1.00;;;;;;;;;;5071669;28;20024;-79
2021/09/30 14:50:18;;;;;;;3.53;0.80;;;;;;;;;;5072689;28;20032;-81
2021/09/30 14:52:44;;;;;;;2.13;0.90;;;;;;;;;;5066188;28;20402;-79
2021/09/30 14:55:10;;;;;;;2.97;0.90;;;17.60;71.10;;;;;;5071198;28;20029;-83
2021/09/30 14:57:36;;;;;;;4.88;0.90;;;;;;;;;;5071859;28;20046;-80
2021/09/30 15:00:05;;;;;;;2.50;0.88;;;17.20;72.90;;;;;;5070904;28;20029;-82
2021/09/30 15:02:31;;;;;;;1.80;0.90;;;;;;;;;;5065419;28;20043;-83
2021/09/30 15:04:57;;;;;;;4.07;0.90;;;;;;;;;;5068053;28;20111;-81
2021/09/30 15:07:23;;;;;;;3.58;1.10;;;16.80;74.00;;;;;;5071407;28;20052;-79
2021/09/30 15:09:49;;;;;;;4.10;1.50;;;;;;;;;;5067496;28;20040;-82
2021/09/30 15:12:15;;;;;;;2.45;1.20;;;;;;;;;;5069984;28;20029;-83
2021/09/30 15:14:41;;;;;;;3.97;0.95;;;;;;;;;;5071939;28;20031;-79
2021/09/30 15:17:21;;;;;;;2.47;0.80;;;;;;;;;;5071663;28;20385;-82
2021/09/30 15:19:52;;;;;;;5.75;1.00;;;;;;;;;;5073612;28;20024;-80
2021/09/30 15:22:18;;;;;;;4.45;1.50;;;;;;;;;;5069745;28;20037;-81
2021/09/30 15:24:44;;;;;;;1.55;0.60;;;;;;;;;;5070233;28;20025;-81
2021/09/30 15:27:12;;;;;;;4.82;0.95;;;;;;;;;;5071259;28;20025;-83
2021/09/30 15:29:38;;;;;;;3.08;0.88;;;;;;;;;;5066973;28;20048;-83
2021/09/30 15:32:04;;;;;;;6.97;1.10;;;16.90;79.50;;;;;;5067656;28;20024;-82
2021/09/30 15:34:30;;;;;;;17.88;7.63;;;;;;;;;;5065517;28;20402;-81
2021/09/30 15:36:56;;;;;;;3.75;1.42;;;;;;;;;;5069480;28;20783;-81
2021/09/30 15:39:22;;;;;;;2.05;0.70;;;;;;;;;;5071895;28;20053;-80
2021/09/30 15:41:49;;;;;;;5.65;0.70;;;;;;;;;;5069438;28;20829;-80
2021/09/30 15:44:18;;;;;;;4.45;1.15;;;;;;;;;;5069161;28;20071;-81
2021/09/30 15:46:44;;;;;;;3.60;0.90;;;;;;;;;;5073912;28;20023;-79
2021/09/30 15:49:10;;;;;;;4.47;1.42;;;;;;;;;;5074071;28;20063;-78
2021/09/30 15:51:36;;;;;;;7.63;2.15;;;;;;;;;;5069233;28;20033;-80
2021/09/30 15:54:02;;;;;;;3.47;0.80;;;;;;;;;;5071725;28;20048;-82
2021/09/30 15:56:28;;;;;;;4.47;1.10;;;;;;;;;;5070862;28;20486;-83
2021/09/30 15:58:54;;;;;;;3.58;1.05;;;;;;;;;;5068427;28;20036;-82
2021/09/30 16:01:21;;;;;;;1.27;0.80;;;;;;;;;;5068894;28;20086;-81
2021/09/30 16:03:47;;;;;;;2.83;1.23;;;;;;;;;;5065992;28;20025;-81
2021/09/30 16:06:13;;;;;;;5.50;1.10;;;;;;;;;;5068381;28;20183;-81
2021/09/30 16:08:41;;;;;;;10.68;2.13;;;;;;;;;;5070422;28;20047;-81
2021/09/30 16:11:11;;;;;;;5.68;1.20;;;;;;;;;;5079067;28;20024;-78
2021/09/30 16:13:37;;;;;;;3.10;0.68;;;;;;;;;;5075431;28;20032;-83
2021/09/30 16:16:04;;;;;;;3.88;0.90;;;;;;;;;;5076923;28;20027;-81
2021/09/30 16:18:35;;;;;;;3.03;0.93;;;;;;;;;;5071896;28;20068;-81
2021/09/30 16:21:01;;;;;;;7.05;0.93;;;;;;;;;;5075314;28;20028;-83
2021/09/30 16:23:27;;;;;;;2.35;0.90;;;;;;;;;;5072839;28;20024;-80
2021/09/30 16:25:53;;;;;;;3.50;0.88;;;;;;;;;;5077469;28;20137;-80
2021/09/30 16:28:20;;;;;;;2.15;0.90;;;;;;;;;;5071866;28;20020;-81
2021/09/30 16:30:48;;;;;;;2.17;0.90;;;;;;;;;;5071905;28;20025;-82
2021/09/30 16:33:14;;;;;;;3.35;1.10;;;;;;;;;;5067162;28;20054;-81
2021/09/30 16:35:40;;;;;;;7.07;1.20;;;;;;;;;;5079596;28;20032;-83
2021/09/30 16:38:06;;;;;;;3.42;0.88;;;;;;;;;;5070749;28;20016;-80
2021/09/30 16:40:32;;;;;;;2.70;0.98;;;;;;;;;;5079497;28;20024;-81
2021/09/30 16:42:58;;;;;;;5.15;1.75;;;;;;;;;;5069697;28;20024;-81
2021/09/30 16:45:24;;;;;;;4.53;1.50;;;;;;;;;;5071574;28;20048;-81
2021/09/30 16:47:51;;;;;;;3.83;1.15;;;;;;;;;;5073979;28;20021;-82